createdAt,value
2018-09-02T00:00:04.509Z,18.10
2018-09-02T00:02:33.826Z,18.10
2018-09-02T00:05:03.243Z,18.10
2018-09-02T00:07:32.524Z,18.10
2018-09-02T00:10:01.813Z,18.10
2018-09-02T00:12:31.135Z,18.00
2018-09-02T00:15:00.423Z,17.90
2018-09-02T00:17:30.073Z,17.90
2018-09-02T00:19:59.359Z,18.00
2018-09-02T00:22:28.675Z,17.90
2018-09-02T00:24:57.886Z,17.80
2018-09-02T00:27:27.119Z,17.50
2018-09-02T00:29:56.428Z,17.60
2018-09-02T00:32:25.672Z,17.70
2018-09-02T00:34:55.355Z,17.80
2018-09-02T00:37:24.647Z,17.70
2018-09-02T00:39:53.881Z,17.70
2018-09-02T00:42:23.154Z,17.40
2018-09-02T00:44:53.503Z,17.30
2018-09-02T00:47:22.803Z,17.50
2018-09-02T00:49:52.030Z,17.50
2018-09-02T00:52:21.223Z,17.50
2018-09-02T00:54:50.579Z,17.60
2018-09-02T00:57:19.838Z,17.50
2018-09-02T00:59:49.130Z,17.40
2018-09-02T01:02:18.845Z,17.10
2018-09-02T01:04:48.084Z,17.30
2018-09-02T01:07:17.351Z,17.40
2018-09-02T01:09:46.619Z,17.40
2018-09-02T01:12:15.847Z,17.20
2018-09-02T01:14:45.151Z,16.90
2018-09-02T01:17:14.553Z,16.90
2018-09-02T01:19:43.847Z,17.00
2018-09-02T01:22:13.532Z,17.00
2018-09-02T01:24:42.881Z,16.90
2018-09-02T01:27:12.183Z,17.00
2018-09-02T01:29:41.487Z,17.10
2018-09-02T01:32:10.797Z,17.10
2018-09-02T01:34:40.070Z,17.10
2018-09-02T01:37:09.317Z,17.10
2018-09-02T01:39:39.715Z,17.20
2018-09-02T01:42:09.035Z,17.20
2018-09-02T01:44:38.363Z,17.20
2018-09-02T01:47:07.615Z,17.20
2018-09-02T01:49:36.916Z,17.30
2018-09-02T01:52:06.123Z,17.20
2018-09-02T01:54:35.510Z,17.20
2018-09-02T01:57:04.921Z,17.20
2018-09-02T01:59:34.167Z,17.10
2018-09-02T02:02:03.577Z,17.10
2018-09-02T02:04:38.047Z,17.20
2018-09-02T02:07:07.400Z,17.20
2018-09-02T02:09:36.695Z,17.10
2018-09-02T02:12:05.996Z,17.10
2018-09-02T02:14:35.219Z,17.10
2018-09-02T02:17:04.505Z,17.10
2018-09-02T02:19:34.098Z,17.10
2018-09-02T02:22:03.399Z,17.10
2018-09-02T02:24:32.685Z,17.10
2018-09-02T02:27:01.997Z,17.10
2018-09-02T02:29:31.254Z,17.10
2018-09-02T02:32:00.475Z,17.10
2018-09-02T02:34:29.671Z,17.00
2018-09-02T02:36:58.927Z,17.00
2018-09-02T02:39:28.163Z,17.00
2018-09-02T02:41:57.431Z,17.00
2018-09-02T02:44:26.765Z,17.10
2018-09-02T02:46:56.027Z,17.10
2018-09-02T02:49:25.327Z,16.90
2018-09-02T02:51:55.418Z,16.90
2018-09-02T02:54:24.686Z,16.90
2018-09-02T02:56:53.943Z,16.80
2018-09-02T02:59:23.651Z,16.70
2018-09-02T03:01:52.898Z,16.80
2018-09-02T03:04:22.079Z,16.70
2018-09-02T03:06:51.339Z,16.70
2018-09-02T03:09:20.648Z,16.70
2018-09-02T03:11:49.950Z,16.60
2018-09-02T03:14:19.191Z,16.70
2018-09-02T03:16:48.956Z,16.70
2018-09-02T03:19:18.191Z,16.80
2018-09-02T03:21:47.424Z,16.70
2018-09-02T03:24:16.787Z,16.70
2018-09-02T03:26:46.022Z,16.70
2018-09-02T03:29:15.272Z,16.70
2018-09-02T03:31:44.551Z,16.70
2018-09-02T03:34:14.235Z,16.60
2018-09-02T03:36:44.089Z,16.60
2018-09-02T03:39:13.400Z,16.50
2018-09-02T03:41:42.696Z,16.50
2018-09-02T03:44:12.002Z,16.50
2018-09-02T03:46:41.317Z,16.40
2018-09-02T03:49:10.535Z,16.40
2018-09-02T03:51:39.779Z,16.40
2018-09-02T03:54:09.072Z,16.40
2018-09-02T03:56:38.328Z,16.40
2018-09-02T03:59:07.593Z,16.40
2018-09-02T04:01:36.865Z,16.40
2018-09-02T04:04:06.217Z,16.20
2018-09-02T04:06:35.720Z,16.20
2018-09-02T04:09:07.986Z,16.30
2018-09-02T04:11:37.272Z,16.20
2018-09-02T04:14:06.658Z,16.30
2018-09-02T04:16:35.927Z,16.20
2018-09-02T04:19:05.286Z,16.20
2018-09-02T04:21:34.670Z,16.30
2018-09-02T04:24:04.046Z,16.20
2018-09-02T04:26:33.763Z,16.20
2018-09-02T04:29:03.093Z,16.00
2018-09-02T04:31:32.401Z,16.00
2018-09-02T04:34:01.642Z,16.10
2018-09-02T04:36:30.945Z,16.20
2018-09-02T04:39:00.178Z,16.20
2018-09-02T04:41:29.400Z,16.20
2018-09-02T04:43:58.671Z,16.20
2018-09-02T04:46:27.946Z,16.20
2018-09-02T04:48:57.223Z,16.20
2018-09-02T04:51:26.491Z,16.20
2018-09-02T04:53:55.758Z,16.20
2018-09-02T04:56:24.983Z,16.20
2018-09-02T04:58:54.329Z,16.30
2018-09-02T05:01:23.546Z,16.20
2018-09-02T05:03:52.843Z,16.10
2018-09-02T05:06:22.093Z,16.20
2018-09-02T05:08:51.308Z,16.10
2018-09-02T05:11:20.623Z,16.20
2018-09-02T05:13:49.894Z,16.10
2018-09-02T05:16:19.227Z,16.10
2018-09-02T05:18:48.426Z,16.00
2018-09-02T05:21:17.762Z,16.00
2018-09-02T05:23:47.011Z,16.10
2018-09-02T05:26:16.287Z,16.00
2018-09-02T05:28:45.575Z,16.00
2018-09-02T05:31:14.875Z,16.20
2018-09-02T05:33:44.122Z,16.30
2018-09-02T05:36:13.494Z,16.30
2018-09-02T05:38:42.766Z,16.30
2018-09-02T05:41:12.031Z,16.30
2018-09-02T05:43:41.303Z,16.50
2018-09-02T05:46:10.570Z,16.50
2018-09-02T05:48:39.795Z,16.60
2018-09-02T05:51:09.002Z,16.60
2018-09-02T05:53:38.291Z,16.60
2018-09-02T05:56:07.526Z,16.60
2018-09-02T05:58:36.755Z,16.70
2018-09-02T06:01:06.059Z,16.60
2018-09-02T06:03:35.331Z,16.70
2018-09-02T06:06:04.967Z,16.70
2018-09-02T06:08:34.212Z,16.70
2018-09-02T06:11:03.541Z,16.70
2018-09-02T06:13:32.819Z,16.60
2018-09-02T06:16:02.155Z,16.70
2018-09-02T06:18:31.474Z,16.70
2018-09-02T06:21:00.749Z,16.50
2018-09-02T06:23:29.975Z,16.50
2018-09-02T06:25:59.216Z,16.70
2018-09-02T06:28:28.462Z,16.70
2018-09-02T06:30:57.758Z,16.80
2018-09-02T06:33:27.067Z,16.70
2018-09-02T06:35:56.401Z,16.80
2018-09-02T06:38:25.665Z,16.70
2018-09-02T06:40:54.888Z,16.80
2018-09-02T06:43:24.083Z,17.00
2018-09-02T06:45:53.446Z,16.90
2018-09-02T06:48:22.616Z,16.90
2018-09-02T06:50:51.816Z,16.80
2018-09-02T06:53:21.149Z,16.80
2018-09-02T06:55:50.362Z,16.80
2018-09-02T06:58:19.663Z,16.80
2018-09-02T07:00:49.308Z,17.00
2018-09-02T07:03:18.547Z,17.00
2018-09-02T07:05:47.800Z,17.10
2018-09-02T07:08:17.074Z,17.20
2018-09-02T07:10:46.382Z,17.20
2018-09-02T07:13:15.672Z,17.30
2018-09-02T07:15:44.999Z,17.30
2018-09-02T07:18:14.307Z,17.30
2018-09-02T07:20:43.549Z,17.30
2018-09-02T07:23:12.790Z,17.30
2018-09-02T07:25:42.009Z,17.40
2018-09-02T07:28:11.191Z,17.40
2018-09-02T07:30:40.603Z,17.40
2018-09-02T07:33:09.907Z,17.50
2018-09-02T07:35:39.211Z,17.50
2018-09-02T07:38:08.527Z,17.50
2018-09-02T07:40:37.804Z,17.70
2018-09-02T07:43:07.107Z,17.80
2018-09-02T07:45:36.315Z,17.80
2018-09-02T07:48:05.672Z,17.90
2018-09-02T07:50:34.893Z,17.90
2018-09-02T07:53:04.231Z,18.00
2018-09-02T07:55:33.528Z,17.90
2018-09-02T07:58:02.748Z,18.20
2018-09-02T08:00:32.009Z,18.60
2018-09-02T08:03:01.320Z,18.70
2018-09-02T08:05:30.666Z,19.00
2018-09-02T08:07:59.925Z,19.20
2018-09-02T08:10:29.255Z,19.50
2018-09-02T08:12:58.686Z,19.70
2018-09-02T08:15:28.240Z,19.80
2018-09-02T08:17:57.562Z,19.70
2018-09-02T08:20:26.822Z,19.70
2018-09-02T08:22:56.499Z,19.70
2018-09-02T08:25:25.761Z,19.70
2018-09-02T08:27:55.066Z,19.80
2018-09-02T08:30:24.349Z,20.40
2018-09-02T08:32:53.637Z,20.80
2018-09-02T08:35:22.859Z,20.60
2018-09-02T08:37:52.149Z,20.50
2018-09-02T08:40:21.436Z,20.30
2018-09-02T08:42:50.747Z,20.50
2018-09-02T08:45:20.055Z,20.70
2018-09-02T08:47:49.366Z,21.00
2018-09-02T08:50:18.757Z,21.30
2018-09-02T08:52:47.981Z,21.50
2018-09-02T08:55:17.251Z,21.80
2018-09-02T08:57:46.531Z,21.90
2018-09-02T09:00:16.712Z,21.90
2018-09-02T09:02:46.392Z,22.20
2018-09-02T09:05:15.647Z,22.50
2018-09-02T09:07:45.101Z,22.60
2018-09-02T09:10:14.310Z,22.30
2018-09-02T09:12:43.675Z,22.60
2018-09-02T09:15:13.285Z,22.50
2018-09-02T09:17:42.515Z,22.50
2018-09-02T09:20:11.747Z,22.50
2018-09-02T09:22:41.138Z,22.70
2018-09-02T09:25:10.955Z,22.90
2018-09-02T09:27:40.671Z,23.00
2018-09-02T09:30:10.383Z,23.00
2018-09-02T09:32:40.204Z,22.90
2018-09-02T09:35:09.498Z,22.90
2018-09-02T09:37:38.821Z,23.10
2018-09-02T09:40:08.100Z,23.10
2018-09-02T09:42:37.377Z,23.20
2018-09-02T09:45:06.679Z,23.50
2018-09-02T09:47:35.938Z,23.60
2018-09-02T09:50:05.758Z,23.60
2018-09-02T09:52:35.062Z,23.80
2018-09-02T09:55:04.461Z,24.10
2018-09-02T09:57:33.814Z,24.00
2018-09-02T10:00:03.102Z,24.20
2018-09-02T10:02:32.422Z,24.30
2018-09-02T10:05:01.647Z,24.10
2018-09-02T10:07:30.918Z,24.30
2018-09-02T10:10:00.480Z,24.20
2018-09-02T10:12:29.709Z,24.30
2018-09-02T10:14:59.012Z,24.40
2018-09-02T10:17:28.275Z,24.70
2018-09-02T10:19:57.701Z,25.00
2018-09-02T10:22:26.926Z,25.10
2018-09-02T10:24:56.235Z,25.00
2018-09-02T10:27:25.495Z,25.20
2018-09-02T10:29:54.857Z,25.10
2018-09-02T10:32:24.155Z,25.10
2018-09-02T10:34:53.450Z,25.10
2018-09-02T10:37:22.699Z,25.00
2018-09-02T10:39:51.962Z,25.20
2018-09-02T10:42:21.230Z,25.30
2018-09-02T10:44:50.498Z,25.40
2018-09-02T10:47:19.768Z,25.10
2018-09-02T10:49:49.108Z,25.60
2018-09-02T10:52:18.274Z,25.70
2018-09-02T10:54:47.532Z,25.70
2018-09-02T10:57:16.709Z,25.90
2018-09-02T10:59:46.005Z,25.90
2018-09-02T11:02:15.325Z,26.00
2018-09-02T11:04:44.696Z,26.30
2018-09-02T11:07:14.016Z,26.40
2018-09-02T11:09:43.214Z,26.40
2018-09-02T11:12:12.499Z,26.40
2018-09-02T11:14:41.726Z,26.40
2018-09-02T11:17:11.001Z,26.50
2018-09-02T11:19:40.239Z,26.70
2018-09-02T11:22:09.623Z,26.60
2018-09-02T11:24:38.999Z,26.70
2018-09-02T11:27:08.594Z,26.40
2018-09-02T11:29:37.915Z,26.50
2018-09-02T11:32:07.345Z,26.50
2018-09-02T11:34:36.634Z,26.30
2018-09-02T11:37:05.919Z,26.10
2018-09-02T11:39:35.195Z,25.70
2018-09-02T11:42:04.475Z,25.50
2018-09-02T11:44:33.705Z,25.60
2018-09-02T11:47:02.996Z,25.50
2018-09-02T11:49:32.375Z,25.30
2018-09-02T11:52:01.601Z,25.10
2018-09-02T11:54:30.847Z,25.20
2018-09-02T11:57:00.199Z,25.10
2018-09-02T11:59:29.462Z,25.00
2018-09-02T12:01:58.775Z,24.90
2018-09-02T12:04:28.042Z,25.00
2018-09-02T12:06:59.361Z,24.60
2018-09-02T12:09:28.993Z,24.90
2018-09-02T12:11:58.300Z,24.80
2018-09-02T12:14:27.599Z,24.80
2018-09-02T12:16:56.904Z,24.70
2018-09-02T12:19:26.253Z,24.50
2018-09-02T12:21:55.615Z,24.50
2018-09-02T12:24:24.840Z,24.50
2018-09-02T12:26:54.191Z,24.40
2018-09-02T12:29:23.639Z,24.30
2018-09-02T12:31:53.177Z,24.50
2018-09-02T12:34:22.689Z,24.50
2018-09-02T12:36:51.959Z,24.60
2018-09-02T12:39:22.520Z,24.60
2018-09-02T12:41:51.828Z,24.70
2018-09-02T12:44:21.290Z,24.80
2018-09-02T12:46:51.031Z,25.10
2018-09-02T12:49:20.563Z,25.40
2018-09-02T12:51:49.982Z,25.70
2018-09-02T12:54:19.284Z,25.50
2018-09-02T12:56:50.529Z,25.70
2018-09-02T12:59:20.492Z,25.50
2018-09-02T13:01:49.758Z,25.50
2018-09-02T13:04:20.120Z,25.30
2018-09-02T13:06:49.465Z,25.00
2018-09-02T13:09:20.004Z,25.00
2018-09-02T13:11:49.969Z,25.00
2018-09-02T13:14:19.436Z,25.00
2018-09-02T13:16:48.740Z,25.10
2018-09-02T13:19:18.203Z,25.10
2018-09-02T13:21:52.093Z,25.20
2018-09-02T13:24:26.608Z,25.10
2018-09-02T13:27:02.120Z,25.20
2018-09-02T13:29:31.594Z,25.20
2018-09-02T13:32:01.680Z,25.40
2018-09-02T13:34:31.096Z,25.40
2018-09-02T13:37:00.364Z,25.40
2018-09-02T13:39:29.991Z,25.50
2018-09-02T13:41:59.438Z,25.80
2018-09-02T13:44:28.831Z,25.70
2018-09-02T13:47:00.183Z,25.60
2018-09-02T13:49:30.734Z,25.80
2018-09-02T13:52:00.061Z,25.80
2018-09-02T13:54:29.327Z,25.90
2018-09-02T13:56:59.181Z,25.70
2018-09-02T13:59:28.608Z,25.80
2018-09-02T14:01:57.925Z,25.90
2018-09-02T14:04:27.208Z,26.00
2018-09-02T14:06:59.060Z,25.80
2018-09-02T14:09:28.384Z,26.10
2018-09-02T14:11:57.667Z,26.40
2018-09-02T14:14:26.972Z,26.50
2018-09-02T14:16:57.432Z,26.60
2018-09-02T14:19:26.718Z,26.70
2018-09-02T14:21:55.992Z,26.60
2018-09-02T14:24:26.188Z,26.40
2018-09-02T14:26:55.476Z,26.40
2018-09-02T14:29:24.847Z,26.40
2018-09-02T14:31:58.024Z,26.60
2018-09-02T14:34:27.341Z,26.80
2018-09-02T14:36:57.013Z,26.70
2018-09-02T14:39:26.291Z,26.60
2018-09-02T14:41:55.652Z,26.20
2018-09-02T14:44:24.950Z,26.20
2018-09-02T14:46:54.267Z,26.30
2018-09-02T14:49:23.724Z,26.20
2018-09-02T14:51:53.500Z,26.40
2018-09-02T14:54:22.820Z,26.50
2018-09-02T14:56:52.181Z,26.90
2018-09-02T14:59:21.411Z,27.30
2018-09-02T15:01:50.735Z,27.40
2018-09-02T15:04:22.098Z,27.20
2018-09-02T15:06:51.336Z,26.90
2018-09-02T15:09:20.606Z,26.80
2018-09-02T15:11:49.936Z,26.90
2018-09-02T15:14:19.251Z,26.70
2018-09-02T15:16:48.539Z,26.40
2018-09-02T15:19:17.830Z,26.50
2018-09-02T15:21:47.080Z,26.70
2018-09-02T15:24:16.423Z,26.70
2018-09-02T15:26:45.762Z,26.90
2018-09-02T15:29:15.189Z,26.60
2018-09-02T15:31:44.495Z,26.30
2018-09-02T15:34:13.831Z,26.40
2018-09-02T15:36:50.762Z,26.40
2018-09-02T15:39:21.116Z,26.20
2018-09-02T15:41:51.557Z,26.00
2018-09-02T15:44:21.518Z,26.00
2018-09-02T15:46:50.822Z,25.90
2018-09-02T15:49:20.422Z,25.80
2018-09-02T15:51:49.684Z,25.80
2018-09-02T15:54:18.982Z,25.60
2018-09-02T15:56:48.264Z,25.70
2018-09-02T15:59:18.629Z,25.70
2018-09-02T16:01:48.035Z,25.70
2018-09-02T16:04:17.324Z,25.80
2018-09-02T16:06:46.599Z,25.90
2018-09-02T16:09:15.937Z,25.80
2018-09-02T16:11:45.218Z,26.10
2018-09-02T16:14:14.517Z,26.20
2018-09-02T16:16:43.931Z,26.20
2018-09-02T16:19:13.363Z,26.10
2018-09-02T16:21:42.758Z,26.00
2018-09-02T16:24:12.121Z,25.80
2018-09-02T16:26:41.535Z,25.60
2018-09-02T16:29:10.854Z,25.80
2018-09-02T16:31:40.135Z,25.70
2018-09-02T16:34:09.584Z,25.70
2018-09-02T16:36:38.855Z,25.70
2018-09-02T16:39:09.621Z,25.80
2018-09-02T16:41:38.891Z,25.70
2018-09-02T16:44:08.234Z,25.60
2018-09-02T16:46:37.458Z,25.60
2018-09-02T16:49:06.777Z,25.70
2018-09-02T16:51:36.101Z,25.60
2018-09-02T16:54:05.466Z,25.60
2018-09-02T16:56:34.760Z,25.40
2018-09-02T16:59:04.375Z,25.30
2018-09-02T17:01:33.830Z,25.30
2018-09-02T17:04:05.438Z,25.40
2018-09-02T17:06:34.726Z,25.40
2018-09-02T17:09:05.148Z,25.50
2018-09-02T17:11:34.395Z,25.40
2018-09-02T17:14:03.990Z,25.40
2018-09-02T17:16:34.355Z,25.30
2018-09-02T17:19:22.463Z,25.20
2018-09-02T17:21:51.778Z,25.40
2018-09-02T17:24:21.116Z,25.40
2018-09-02T17:26:51.464Z,25.40
2018-09-02T17:29:20.735Z,25.40
2018-09-02T17:31:50.001Z,25.30
2018-09-02T17:34:19.315Z,25.20
2018-09-02T17:36:48.521Z,25.30
2018-09-02T17:39:17.819Z,25.20
2018-09-02T17:41:47.042Z,25.20
2018-09-02T17:44:16.423Z,25.20
2018-09-02T17:46:45.665Z,25.10
2018-09-02T17:49:14.876Z,25.20
2018-09-02T17:51:44.174Z,25.20
2018-09-02T17:54:13.344Z,25.20
2018-09-02T17:56:42.562Z,25.10
2018-09-02T17:59:11.807Z,25.10
2018-09-02T18:01:41.099Z,25.10
2018-09-02T18:04:10.335Z,25.20
2018-09-02T18:06:39.574Z,25.10
2018-09-02T18:09:10.827Z,25.00
2018-09-02T18:11:40.799Z,25.00
2018-09-02T18:14:10.200Z,25.00
2018-09-02T18:16:46.119Z,25.00
2018-09-02T18:19:15.485Z,25.00
2018-09-02T18:21:44.739Z,24.90
2018-09-02T18:24:13.939Z,24.90
2018-09-02T18:26:43.188Z,24.80
2018-09-02T18:29:12.475Z,24.70
2018-09-02T18:31:41.704Z,24.70
2018-09-02T18:34:11.109Z,24.70
2018-09-02T18:36:40.446Z,24.70
2018-09-02T18:39:11.420Z,24.60
2018-09-02T18:41:40.936Z,24.60
2018-09-02T18:44:10.471Z,24.60
2018-09-02T18:46:40.451Z,24.60
2018-09-02T18:49:10.359Z,24.70
2018-09-02T18:51:40.254Z,24.60
2018-09-02T18:54:09.963Z,24.60
2018-09-02T18:56:39.232Z,24.70
2018-09-02T18:59:09.073Z,24.60
2018-09-02T19:01:38.569Z,24.70
2018-09-02T19:04:08.667Z,24.60
2018-09-02T19:06:39.103Z,24.70
2018-09-02T19:09:09.760Z,24.70
2018-09-02T19:11:41.136Z,24.60
2018-09-02T19:14:11.219Z,24.60
2018-09-02T19:16:40.864Z,24.60
2018-09-02T19:19:10.446Z,24.60
2018-09-02T19:21:40.577Z,24.60
2018-09-02T19:24:12.160Z,24.50
2018-09-02T19:26:42.057Z,24.60
2018-09-02T19:29:11.731Z,24.60
2018-09-02T19:31:41.394Z,24.60
2018-09-02T19:34:11.312Z,24.60
2018-09-02T19:36:40.688Z,24.60
2018-09-02T19:39:11.049Z,24.50
2018-09-02T19:41:40.952Z,24.40
2018-09-02T19:44:10.560Z,24.40
2018-09-02T19:46:39.989Z,24.40
2018-09-02T19:49:09.324Z,24.30
2018-09-02T19:51:38.714Z,24.20
2018-09-02T19:54:08.324Z,24.20
2018-09-02T19:56:39.762Z,24.30
2018-09-02T19:59:09.043Z,24.20
2018-09-02T20:01:38.291Z,24.20
2018-09-02T20:04:08.119Z,24.30
2018-09-02T20:06:37.547Z,24.20
2018-09-02T20:09:11.399Z,24.30
2018-09-02T20:11:40.623Z,24.10
2018-09-02T20:14:10.162Z,24.00
2018-09-02T20:16:39.614Z,23.90
2018-09-02T20:19:09.070Z,24.00
2018-09-02T20:21:38.365Z,24.10
2018-09-02T20:24:08.184Z,24.10
2018-09-02T20:26:42.515Z,24.00
2018-09-02T20:29:11.844Z,24.00
2018-09-02T20:31:41.260Z,24.00
2018-09-02T20:34:12.639Z,23.90
2018-09-02T20:36:42.000Z,23.90
2018-09-02T20:39:11.321Z,23.90
2018-09-02T20:41:40.667Z,24.00
2018-09-02T20:44:09.968Z,24.00
2018-09-02T20:46:39.236Z,23.90
2018-09-02T20:49:08.465Z,23.80
2018-09-02T20:51:37.715Z,23.80
2018-09-02T20:54:07.121Z,23.80
2018-09-02T20:56:36.411Z,23.70
2018-09-02T20:59:06.302Z,23.70
2018-09-02T21:01:35.656Z,23.70
2018-09-02T21:04:05.046Z,23.60
2018-09-02T21:06:34.328Z,23.60
2018-09-02T21:09:05.126Z,23.40
2018-09-02T21:11:34.390Z,23.40
2018-09-02T21:14:03.739Z,23.40
2018-09-02T21:16:33.091Z,23.30
2018-09-02T21:19:07.143Z,23.40
2018-09-02T21:21:36.370Z,23.40
2018-09-02T21:24:05.831Z,23.30
2018-09-02T21:26:35.112Z,23.10
2018-09-02T21:29:04.461Z,23.20
2018-09-02T21:31:33.770Z,23.30
2018-09-02T21:34:03.049Z,23.40
2018-09-02T21:36:32.275Z,23.40
2018-09-02T21:39:01.543Z,23.20
2018-09-02T21:41:30.796Z,23.20
2018-09-02T21:44:00.458Z,23.20
2018-09-02T21:46:29.775Z,23.20
2018-09-02T21:48:59.087Z,23.20
2018-09-02T21:51:28.402Z,23.20
2018-09-02T21:54:23.098Z,23.20
2018-09-02T21:56:52.349Z,23.20
2018-09-02T21:59:21.624Z,23.10
2018-09-02T22:01:50.951Z,23.10
2018-09-02T22:04:20.272Z,23.10
2018-09-02T22:06:49.590Z,23.10
2018-09-02T22:09:18.958Z,23.20
2018-09-02T22:11:48.255Z,23.20
2018-09-02T22:14:17.658Z,23.20
2018-09-02T22:16:46.930Z,23.20
2018-09-02T22:19:16.146Z,23.20
2018-09-02T22:21:45.414Z,23.10
2018-09-02T22:24:14.630Z,23.20
2018-09-02T22:26:43.874Z,23.20
2018-09-02T22:29:13.209Z,23.20
2018-09-02T22:31:42.442Z,23.20
2018-09-02T22:34:11.696Z,23.20
2018-09-02T22:36:40.967Z,23.30
2018-09-02T22:39:10.208Z,23.20
2018-09-02T22:41:39.550Z,23.20
2018-09-02T22:44:08.863Z,23.20
2018-09-02T22:46:38.102Z,23.20
2018-09-02T22:49:07.488Z,23.20
2018-09-02T22:51:36.697Z,23.20
2018-09-02T22:54:06.312Z,23.20
2018-09-02T22:56:35.628Z,23.20
2018-09-02T22:59:04.976Z,23.10
2018-09-02T23:01:34.275Z,23.10
2018-09-02T23:04:03.568Z,23.10
2018-09-02T23:06:32.785Z,23.10
2018-09-02T23:09:02.071Z,23.10
2018-09-02T23:11:31.374Z,23.00
2018-09-02T23:14:00.639Z,23.00
2018-09-02T23:16:30.011Z,23.10
2018-09-02T23:18:59.379Z,23.10
2018-09-02T23:21:28.666Z,23.10
2018-09-02T23:23:58.066Z,23.10
2018-09-02T23:26:27.874Z,23.00
2018-09-02T23:28:57.274Z,22.90
2018-09-02T23:31:26.594Z,22.80
2018-09-02T23:33:55.942Z,22.70
2018-09-02T23:36:25.224Z,22.60
2018-09-02T23:38:54.631Z,22.50
2018-09-02T23:41:23.915Z,22.50
2018-09-02T23:43:53.405Z,22.60
2018-09-02T23:46:22.751Z,22.70
2018-09-02T23:48:52.311Z,22.70
2018-09-02T23:51:21.648Z,22.70
2018-09-02T23:53:52.896Z,22.70
2018-09-02T23:56:22.161Z,22.70
2018-09-02T23:58:52.490Z,22.70
